createdAt,value
2023-03-22T00:03:19.099Z,7.97
2023-03-22T00:07:25.199Z,6.70
2023-03-22T00:11:30.978Z,7.63
2023-03-22T00:15:34.454Z,6.70
2023-03-22T00:19:42.222Z,6.88
2023-03-22T00:23:45.898Z,7.18
2023-03-22T00:27:50.726Z,6.10
2023-03-22T00:31:55.024Z,7.20
2023-03-22T00:36:00.997Z,6.35
2023-03-22T00:40:04.755Z,6.90
2023-03-22T00:44:11.478Z,6.95
2023-03-22T00:48:14.586Z,6.95
2023-03-22T00:52:17.672Z,6.15
2023-03-22T00:56:29.934Z,6.40
2023-03-22T01:00:36.019Z,6.30
2023-03-22T01:04:45.876Z,6.50
2023-03-22T01:08:51.078Z,6.70
2023-03-22T01:12:54.307Z,6.93
2023-03-22T01:17:01.514Z,6.55
2023-03-22T01:21:06.039Z,6.10
2023-03-22T01:25:19.091Z,6.38
2023-03-22T01:29:27.745Z,6.72
2023-03-22T01:33:32.363Z,6.20
2023-03-22T01:37:35.771Z,7.03
2023-03-22T01:41:40.868Z,6.67
2023-03-22T01:45:46.777Z,6.07
2023-03-22T01:49:56.076Z,6.65
2023-03-22T01:54:10.280Z,7.53
2023-03-22T01:58:16.335Z,7.40
2023-03-22T02:02:22.564Z,6.93
2023-03-22T02:06:29.994Z,7.22
2023-03-22T02:10:33.178Z,7.53
2023-03-22T02:15:06.022Z,8.30
2023-03-22T02:19:42.624Z,7.23
2023-03-22T02:24:11.451Z,8.37
2023-03-22T02:28:30.833Z,6.83
2023-03-22T02:33:07.135Z,7.28
2023-03-22T02:37:35.689Z,6.80
2023-03-22T02:41:48.790Z,7.20
2023-03-22T02:45:56.475Z,7.82
2023-03-22T02:50:04.912Z,7.37
2023-03-22T02:54:15.423Z,6.80
2023-03-22T02:58:23.477Z,7.37
2023-03-22T03:02:30.987Z,6.97
2023-03-22T03:06:39.007Z,7.07
2023-03-22T03:10:42.880Z,6.37
2023-03-22T03:14:49.283Z,7.80
2023-03-22T03:19:03.342Z,7.17
2023-03-22T03:23:31.301Z,7.30
2023-03-22T03:27:39.635Z,7.63
2023-03-22T03:31:51.269Z,7.37
2023-03-22T03:35:59.768Z,7.37
2023-03-22T03:40:11.003Z,7.73
2023-03-22T03:44:14.865Z,7.37
2023-03-22T03:48:22.600Z,8.07
2023-03-22T03:52:26.945Z,7.83
2023-03-22T03:56:29.978Z,7.73
2023-03-22T04:00:34.115Z,7.83
2023-03-22T04:04:42.904Z,7.17
2023-03-22T04:08:53.871Z,8.70
2023-03-22T04:12:57.574Z,8.10
2023-03-22T04:17:05.414Z,9.07
2023-03-22T04:21:16.613Z,8.03
2023-03-22T04:25:22.847Z,8.60
2023-03-22T04:29:32.366Z,7.67
2023-03-22T04:33:39.506Z,7.53
2023-03-22T04:37:45.775Z,8.47
2023-03-22T04:41:48.832Z,8.57
2023-03-22T04:45:54.867Z,8.57
2023-03-22T04:49:58.618Z,9.67
2023-03-22T04:54:03.076Z,8.87
2023-03-22T04:58:06.172Z,8.63
2023-03-22T05:02:09.233Z,9.30
2023-03-22T05:06:13.119Z,9.50
2023-03-22T05:10:20.627Z,9.90
2023-03-22T05:14:26.176Z,8.97
2023-03-22T05:18:29.539Z,10.13
2023-03-22T05:22:34.718Z,9.70
2023-03-22T05:26:42.444Z,9.33
2023-03-22T05:30:49.571Z,9.03
2023-03-22T05:34:53.007Z,9.50
2023-03-22T05:38:56.310Z,10.30
2023-03-22T05:43:00.868Z,10.37
2023-03-22T05:47:05.019Z,10.00
2023-03-22T05:51:08.522Z,10.37
2023-03-22T05:55:13.759Z,10.57
2023-03-22T05:59:18.312Z,9.57
2023-03-22T06:03:21.393Z,9.53
2023-03-22T06:07:27.359Z,9.13
2023-03-22T06:11:33.924Z,8.90
2023-03-22T06:15:38.339Z,8.30
2023-03-22T06:19:43.422Z,9.57
2023-03-22T06:23:46.835Z,8.63
2023-03-22T06:27:50.328Z,8.33
2023-03-22T06:32:17.079Z,9.57
2023-03-22T06:36:24.405Z,8.43
2023-03-22T06:40:27.973Z,7.93
2023-03-22T06:44:31.210Z,10.53
2023-03-22T06:48:38.575Z,10.83
2023-03-22T06:52:41.833Z,9.83
2023-03-22T06:56:45.841Z,9.77
2023-03-22T07:00:49.170Z,9.13
2023-03-22T07:05:00.585Z,9.10
2023-03-22T07:09:09.914Z,10.80
2023-03-22T07:13:16.177Z,9.63
2023-03-22T07:17:24.816Z,9.13
2023-03-22T07:21:29.473Z,9.80
2023-03-22T07:25:32.802Z,9.53
2023-03-22T07:29:36.958Z,11.53
2023-03-22T07:33:48.400Z,10.50
2023-03-22T07:37:53.218Z,9.93
2023-03-22T07:41:57.604Z,10.80
2023-03-22T07:46:03.092Z,10.52
2023-03-22T07:50:07.119Z,12.68
2023-03-22T07:54:17.721Z,14.35
2023-03-22T07:58:29.065Z,12.45
2023-03-22T08:02:32.441Z,12.10
2023-03-22T08:06:37.195Z,11.07
2023-03-22T08:10:41.744Z,10.50
2023-03-22T08:14:46.436Z,9.80
2023-03-22T08:18:51.365Z,9.80
2023-03-22T08:22:56.060Z,9.30
2023-03-22T08:27:02.855Z,9.25
2023-03-22T08:31:13.928Z,9.18
2023-03-22T08:35:18.295Z,8.50
2023-03-22T08:39:22.587Z,8.60
2023-03-22T08:43:32.610Z,7.93
2023-03-22T08:47:35.663Z,7.47
2023-03-22T08:51:38.682Z,6.72
2023-03-22T08:55:44.842Z,5.90
2023-03-22T08:59:50.279Z,5.68
2023-03-22T09:03:53.376Z,5.50
2023-03-22T09:08:06.349Z,5.15
2023-03-22T09:12:10.295Z,4.72
2023-03-22T09:16:17.613Z,3.40
2023-03-22T09:20:25.353Z,4.22
2023-03-22T09:24:29.532Z,3.85
2023-03-22T09:28:36.548Z,3.63
2023-03-22T09:32:43.807Z,3.17
2023-03-22T09:36:52.850Z,3.30
2023-03-22T09:41:01.052Z,3.35
2023-03-22T09:45:09.560Z,2.80
2023-03-22T09:49:17.630Z,2.97
2023-03-22T09:53:23.000Z,3.10
2023-03-22T09:57:40.868Z,3.13
2023-03-22T10:01:50.098Z,2.67
2023-03-22T10:06:03.436Z,3.08
2023-03-22T10:10:15.490Z,2.88
2023-03-22T10:14:30.862Z,2.90
2023-03-22T10:18:38.389Z,3.42
2023-03-22T10:22:53.912Z,3.88
2023-03-22T10:26:57.319Z,4.13
2023-03-22T10:31:00.797Z,4.03
2023-03-22T10:35:04.002Z,3.95
2023-03-22T10:39:16.852Z,4.40
2023-03-22T10:43:25.184Z,3.95
2023-03-22T10:47:33.824Z,4.28
2023-03-22T10:51:44.703Z,4.35
2023-03-22T10:55:49.443Z,4.15
2023-03-22T10:59:56.462Z,3.42
2023-03-22T11:04:07.573Z,3.92
2023-03-22T11:08:15.803Z,4.15
2023-03-22T11:12:20.911Z,3.60
2023-03-22T11:16:26.636Z,3.83
2023-03-22T11:20:35.074Z,4.35
2023-03-22T11:24:45.316Z,3.47
2023-03-22T11:28:53.034Z,4.10
2023-03-22T11:33:03.487Z,3.10
2023-03-22T11:37:09.444Z,3.05
2023-03-22T11:41:22.199Z,2.80
2023-03-22T11:45:29.254Z,4.53
2023-03-22T11:49:40.807Z,3.65
2023-03-22T11:53:46.982Z,3.60
2023-03-22T11:57:51.972Z,3.75
2023-03-22T12:02:03.154Z,3.15
2023-03-22T12:06:19.118Z,2.45
2023-03-22T12:10:27.697Z,2.97
2023-03-22T12:14:36.540Z,3.00
2023-03-22T12:18:48.712Z,2.78
2023-03-22T12:22:54.744Z,2.63
2023-03-22T12:27:02.470Z,2.53
2023-03-22T12:31:14.677Z,2.65
2023-03-22T12:35:24.275Z,2.75
2023-03-22T12:39:32.181Z,2.47
2023-03-22T12:43:51.041Z,2.25
2023-03-22T12:48:03.099Z,2.10
2023-03-22T12:52:19.013Z,2.50
2023-03-22T12:56:25.413Z,2.40
2023-03-22T13:00:33.946Z,2.40
2023-03-22T13:04:51.467Z,2.30
2023-03-22T13:09:16.222Z,2.45
2023-03-22T13:13:44.325Z,2.03
2023-03-22T13:17:47.921Z,1.80
2023-03-22T13:21:54.846Z,1.95
2023-03-22T13:26:06.061Z,2.05
2023-03-22T13:30:21.974Z,2.20
2023-03-22T13:34:34.316Z,1.80
2023-03-22T13:38:45.288Z,1.80
2023-03-22T13:42:49.841Z,1.88
2023-03-22T13:46:56.069Z,1.90
2023-03-22T13:51:00.799Z,1.98
2023-03-22T13:55:18.590Z,2.20
2023-03-22T13:59:27.623Z,1.88
2023-03-22T14:03:35.049Z,2.20
2023-03-22T14:07:44.365Z,1.98
2023-03-22T14:11:57.795Z,2.13
2023-03-22T14:16:09.868Z,2.13
2023-03-22T14:20:24.528Z,2.38
